ěÝzenÝ letovÚho provozu ╚eskÚ republiky
Letiste: LKNA Aktualizace: 21.01.2020 23:00:27  UTC
 METAR LKNA 21.01. 23:00 ...
METAR LKNA 212300Z 23004KT 180V280 0500 R31/1100D FZFG OVC001 M04/M05 Q1036 RMK RED=
 TAF LKNA 21.01. 17:00 ...
TAF LKNA 211700Z 2118/2218 24004KT 7000 OVC007      BECMG 2118/2120 5000 BR OVC005      TEMPO 2121/2208 1200 BR OVC002      BECMG 2208/2210 30008KT 9999 BKN025      TEMPO 2211/2218 32010G20KT BKN020=
 WARNING LKNA 21.01. 21:58 ...
LKNA AD WRNG 1 VALID 212200/220400 VIS BLW 800M AND BASE BLW 200FT OBS AND FCST NC=